Time;durP1;ratioP1;P1;durP2;ratioP2;P2;SDS_P1;SDS_P2;PMS_P1;PMS_P2;Temp;Humidity;BMP_temperature;BMP_pressure;BME280_temperature;BME280_humidity;BME280_pressure;Samples;Min_cycle;Max_cycle;Signal;HPM_P1;HPM_P2
2021/11/23 00:00:52;;;;;;;12.43;1.20;;;;;;;8.56;92.03;101608.75;5013236;28;20548;-76
2021/11/23 00:03:19;;;;;;;8.30;1.05;;;;;;;8.58;92.43;101613.97;5012959;28;20128;-75
2021/11/23 00:05:46;;;;;;;12.32;1.42;;;;;;;8.50;92.71;101625.50;5013318;28;20418;-75
2021/11/23 00:08:13;;;;;;;11.20;1.10;;;;;;;8.47;92.46;101628.53;5011694;28;20124;-76
2021/11/23 00:10:40;;;;;;;10.00;1.10;;;;;;;8.30;92.88;101619.56;5011562;28;20033;-75
2021/11/23 00:13:10;;;;;;;6.63;1.08;;;;;;;8.25;93.35;101624.59;5011597;28;20109;-76
2021/11/23 00:15:35;;;;;;;7.72;1.05;;;;;;;8.08;93.85;101614.81;5012829;28;20333;-76
2021/11/23 00:18:04;;;;;;;8.55;1.10;;;;;;;8.13;93.85;101639.31;5013398;28;20113;-75
2021/11/23 00:20:30;;;;;;;12.32;1.80;;;;;;;8.06;94.37;101639.13;5011693;28;20038;-76
2021/11/23 00:22:57;;;;;;;10.27;1.20;;;;;;;7.89;93.99;101627.50;5011320;28;20034;-75
2021/11/23 00:25:24;;;;;;;7.72;1.15;;;;;;;7.88;93.90;101627.66;5014161;28;20049;-75
2021/11/23 00:27:49;;;;;;;9.50;1.05;;;;;;;7.87;94.31;101636.69;5019705;28;20037;-75
2021/11/23 00:30:15;;;;;;;7.55;1.20;;;;;;;7.81;95.02;101648.88;5002099;28;20124;-76
2021/11/23 00:32:40;;;;;;;10.80;1.00;;;;;;;7.74;94.78;101646.00;5013374;28;20100;-75
2021/11/23 00:35:07;;;;;;;8.73;0.90;;;;;;;7.60;94.72;101638.56;5015835;28;20030;-75
2021/11/23 00:37:32;;;;;;;11.70;1.40;;;;;;;7.58;95.00;101643.25;5025211;28;20042;-76
2021/11/23 00:39:58;;;;;;;4.10;1.00;;;;;;;7.49;95.56;101646.88;5017263;28;20052;-75
2021/11/23 00:42:25;;;;;;;9.07;1.17;;;;;;;7.47;95.84;101639.00;5019761;28;20108;-75
2021/11/23 00:44:52;;;;;;;6.38;1.25;;;;;;;7.40;95.72;101647.84;5018941;28;20030;-76
2021/11/23 00:47:18;;;;;;;9.85;1.25;;;;;;;7.29;95.71;101644.41;5019927;28;20033;-76
2021/11/23 00:49:45;;;;;;;12.07;1.17;;;;;;;7.18;96.11;101641.97;5018893;28;20033;-75
2021/11/23 00:52:12;;;;;;;8.18;1.40;;;;;;;7.13;96.29;101660.34;5001728;28;20033;-75
2021/11/23 00:54:38;;;;;;;7.15;0.90;;;;;;;7.09;96.48;101659.00;5019482;28;20033;-75
2021/11/23 00:57:04;;;;;;;9.45;1.20;;;;;;;7.05;96.32;101657.59;5020044;28;20460;-75
2021/11/23 00:59:30;;;;;;;8.60;1.30;;;;;;;6.88;96.58;101651.28;5022263;28;20109;-76
2021/11/23 01:01:56;;;;;;;10.93;1.17;;;;;;;6.90;96.79;101659.16;5023927;28;20466;-75
2021/11/23 01:04:21;;;;;;;6.22;0.82;;;;;;;6.84;96.53;101649.91;5003864;28;20030;-75
2021/11/23 01:06:49;;;;;;;10.82;1.70;;;;;;;6.83;96.35;101653.59;5018790;28;20144;-75
2021/11/23 01:09:15;;;;;;;8.18;1.15;;;;;;;6.67;96.64;101640.91;5003951;28;20041;-75
2021/11/23 01:11:42;;;;;;;10.40;1.35;;;;;;;6.78;97.04;101662.06;5018918;28;20026;-76
2021/11/23 01:14:08;;;;;;;8.93;1.00;;;;;;;6.75;97.10;101664.19;5018673;28;20040;-75
2021/11/23 01:16:35;;;;;;;8.00;1.40;;;;;;;6.73;97.04;101668.88;5021181;28;20085;-75
2021/11/23 01:19:00;;;;;;;6.78;0.95;;;;;;;6.71;96.88;101673.53;5020093;28;20032;-75
2021/11/23 01:21:26;;;;;;;6.40;1.10;;;;;;;6.70;97.39;101682.56;5020246;28;20026;-75
2021/11/23 01:23:53;;;;;;;9.13;1.27;;;;;;;6.64;97.35;101688.50;5022069;28;20090;-76
2021/11/23 01:26:19;;;;;;;9.02;1.33;;;;;;;6.58;97.46;101692.63;5020185;28;20033;-75
2021/11/23 01:28:46;;;;;;;6.22;1.73;;;;;;;6.46;98.12;101694.69;5019471;28;20056;-76
2021/11/23 01:31:12;;;;;;;8.20;1.00;;;;;;;6.31;98.38;101690.81;5018359;28;20028;-75
2021/11/23 01:33:37;;;;;;;8.50;1.10;;;;;;;6.38;98.80;101704.44;5019085;28;20120;-75
2021/11/23 01:36:03;;;;;;;7.28;1.10;;;;;;;6.30;98.75;101700.69;5018799;28;20026;-75
2021/11/23 01:38:31;;;;;;;8.30;1.10;;;;;;;6.28;99.07;101708.00;5016851;28;20038;-75
2021/11/23 01:40:57;;;;;;;7.00;0.98;;;;;;;6.19;99.03;101703.56;5003799;28;20096;-75
2021/11/23 01:43:22;;;;;;;6.55;1.27;;;;;;;6.12;99.10;101689.09;5017287;28;20045;-75
2021/11/23 01:45:48;;;;;;;8.13;0.98;;;;;;;6.14;99.30;101707.66;5019782;28;20026;-75
2021/11/23 01:48:13;;;;;;;10.45;1.00;;;;;;;6.06;99.43;101706.56;4998628;28;20034;-75
2021/11/23 01:50:39;;;;;;;10.70;1.60;;;;;;;6.06;99.75;101698.56;5016652;28;20030;-75
2021/11/23 01:53:06;;;;;;;10.15;1.08;;;;;;;5.93;99.69;101690.03;5005842;28;20034;-75
2021/11/23 01:55:34;;;;;;;6.97;1.25;;;;;;;5.85;100.00;101717.44;5001180;28;20099;-76
2021/11/23 01:58:06;;;;;;;5.38;0.90;;;;;;;5.80;100.00;101713.53;5002470;28;20034;-75
2021/11/23 02:00:32;;;;;;;4.90;0.90;;;;;;;5.79;100.00;101711.81;5015685;28;20033;-75
2021/11/23 02:02:59;;;;;;;9.38;0.93;;;;;;;5.80;100.00;101709.03;5017964;28;20038;-75
2021/11/23 02:05:26;;;;;;;9.57;1.10;;;;;;;5.70;100.00;101694.88;5017898;28;20034;-75
2021/11/23 02:07:52;;;;;;;7.53;1.10;;;;;;;5.57;100.00;101695.19;5017523;28;20054;-75
2021/11/23 02:10:17;;;;;;;6.15;1.90;;;;;;;5.36;100.00;101689.16;5017433;28;20092;-75
2021/11/23 02:12:43;;;;;;;5.90;0.80;;;;;;;5.36;100.00;101691.84;5019247;28;20026;-75
2021/11/23 02:15:11;;;;;;;7.40;1.08;;;;;;;5.21;100.00;101682.63;5014492;28;20056;-75
2021/11/23 02:17:37;;;;;;;7.10;0.95;;;;;;;5.21;100.00;101696.78;5014627;28;20109;-75
2021/11/23 02:20:07;;;;;;;4.38;0.90;;;;;;;5.13;100.00;101691.31;4998305;28;20633;-75
2021/11/23 02:22:32;;;;;;;8.15;0.80;;;;;;;5.06;100.00;101693.69;5013269;28;20049;-75
2021/11/23 02:24:58;;;;;;;7.03;0.90;;;;;;;4.98;100.00;101693.56;5014926;28;20121;-75
2021/11/23 02:27:23;;;;;;;6.45;0.85;;;;;;;4.93;100.00;101698.47;5013771;28;20034;-75
2021/11/23 02:29:48;;;;;;;6.22;0.80;;;;;;;4.82;100.00;101701.28;5015158;28;20030;-76
2021/11/23 02:32:14;;;;;;;5.78;0.90;;;;;;;4.79;100.00;101706.91;4997604;28;20034;-75
2021/11/23 02:34:39;;;;;;;6.05;0.95;;;;;;;4.76;100.00;101715.19;4981410;28;20038;-75
2021/11/23 02:37:05;;;;;;;6.40;0.90;;;;;;;4.68;100.00;101722.03;5014726;28;20372;-75
2021/11/23 02:39:30;;;;;;;5.07;0.75;;;;;;;4.63;100.00;101712.78;5013456;28;20396;-75
2021/11/23 02:41:56;;;;;;;3.42;0.90;;;;;;;4.59;100.00;101722.03;4998027;28;20022;-76
2021/11/23 02:44:21;;;;;;;2.83;0.80;;;;;;;4.59;100.00;101720.19;5014445;28;20100;-75
2021/11/23 02:46:47;;;;;;;4.93;0.80;;;;;;;4.47;100.00;101702.66;4995129;28;20037;-75
2021/11/23 02:49:13;;;;;;;7.05;1.00;;;;;;;4.52;100.00;101720.91;5014678;28;20121;-75
2021/11/23 02:51:40;;;;;;;8.55;1.00;;;;;;;4.45;100.00;101712.59;5012900;28;20157;-76
2021/11/23 02:54:06;;;;;;;7.22;0.80;;;;;;;4.42;100.00;101727.03;5013616;28;20033;-75
2021/11/23 02:56:32;;;;;;;5.55;0.60;;;;;;;4.34;100.00;101723.34;5014627;28;20117;-75
2021/11/23 02:58:57;;;;;;;4.20;0.60;;;;;;;4.29;100.00;101728.25;5013645;28;20026;-75
2021/11/23 03:01:26;;;;;;;4.00;0.60;;;;;;;4.17;100.00;101716.84;5011656;28;20022;-75
2021/11/23 03:03:53;;;;;;;3.60;0.75;;;;;;;4.22;100.00;101736.78;5015412;28;20515;-75
2021/11/23 03:06:20;;;;;;;4.85;0.65;;;;;;;4.20;100.00;101736.06;5016175;28;20026;-75
2021/11/23 03:08:47;;;;;;;6.35;0.80;;;;;;;4.25;100.00;101741.03;4987180;28;20060;-75
2021/11/23 03:11:14;;;;;;;7.65;1.60;;;;;;;4.02;100.00;101729.72;5014827;28;20116;-75
2021/11/23 03:13:41;;;;;;;5.88;0.88;;;;;;;4.09;100.00;101757.50;5015007;28;20080;-75
2021/11/23 03:16:13;;;;;;;6.05;0.88;;;;;;;4.05;100.00;101740.09;5015220;28;20065;-75
2021/11/23 03:18:40;;;;;;;8.57;0.82;;;;;;;3.96;100.00;101722.25;5012823;28;20463;-75
2021/11/23 03:21:06;;;;;;;5.38;0.80;;;;;;;4.00;100.00;101726.31;5013706;28;20089;-75
2021/11/23 03:23:32;;;;;;;4.43;0.70;;;;;;;3.93;100.00;101722.50;5022724;28;20087;-75
2021/11/23 03:25:57;;;;;;;7.28;0.80;;;;;;;3.89;100.00;101724.59;5014176;28;20427;-75
2021/11/23 03:28:23;;;;;;;4.38;0.85;;;;;;;3.88;100.00;101719.44;5013376;28;20061;-75
2021/11/23 03:30:49;;;;;;;7.82;0.90;;;;;;;3.75;100.00;101701.84;4996656;28;20030;-75
2021/11/23 03:33:14;;;;;;;4.35;0.70;;;;;;;3.82;100.00;101722.63;5012685;28;20452;-75
2021/11/23 03:35:42;;;;;;;3.28;0.50;;;;;;;3.55;100.00;101700.06;5011492;28;20467;-75
2021/11/23 03:38:10;;;;;;;3.65;0.60;;;;;;;3.53;100.00;101733.94;5012803;28;20026;-75
2021/11/23 03:40:37;;;;;;;7.47;0.73;;;;;;;3.43;100.00;101754.31;5012274;28;20029;-75
2021/11/23 03:43:06;;;;;;;4.90;0.75;;;;;;;3.29;100.00;101753.66;5013060;28;20463;-75
2021/11/23 03:45:33;;;;;;;2.33;0.70;;;;;;;3.11;100.00;101739.22;4996931;28;20038;-75
2021/11/23 03:47:59;;;;;;;5.43;0.70;;;;;;;3.12;100.00;101750.72;5012316;28;20450;-75
2021/11/23 03:50:27;;;;;;;2.78;0.77;;;;;;;3.10;100.00;101757.97;5014289;28;20056;-75
2021/11/23 03:52:53;;;;;;;9.07;0.80;;;;;;;3.01;100.00;101746.25;5012206;28;20398;-75
2021/11/23 03:55:19;;;;;;;2.70;0.57;;;;;;;3.13;100.00;101768.34;5013499;28;20118;-75
2021/11/23 03:57:47;;;;;;;3.97;0.60;;;;;;;3.11;100.00;101771.13;5013679;28;20033;-75
2021/11/23 04:00:15;;;;;;;3.90;0.70;;;;;;;3.11;100.00;101783.59;5012217;28;20029;-75
2021/11/23 04:02:42;;;;;;;2.72;0.70;;;;;;;3.03;100.00;101773.59;5014152;28;20103;-75
2021/11/23 04:05:09;;;;;;;4.18;0.80;;;;;;;3.06;100.00;101781.31;5012819;28;20075;-75
2021/11/23 04:07:39;;;;;;;2.45;0.60;;;;;;;3.01;100.00;101771.06;5012740;28;20085;-75
2021/11/23 04:10:06;;;;;;;6.03;0.90;;;;;;;3.04;100.00;101772.59;5012905;28;20455;-75
2021/11/23 04:12:32;;;;;;;5.90;0.70;;;;;;;3.03;100.00;101776.25;5012215;28;20057;-75
2021/11/23 04:14:58;;;;;;;4.82;0.75;;;;;;;2.85;100.00;101752.03;5014111;28;20124;-75
2021/11/23 04:17:24;;;;;;;6.43;0.88;;;;;;;2.96;100.00;101780.38;4995879;28;20447;-76
2021/11/23 04:19:50;;;;;;;2.50;0.60;;;;;;;2.88;100.00;101788.13;5013383;28;20057;-75
2021/11/23 04:22:16;;;;;;;4.93;0.50;;;;;;;2.73;100.00;101771.63;5018087;28;20080;-75
2021/11/23 04:24:41;;;;;;;3.63;0.60;;;;;;;2.81;100.00;101788.66;5014210;28;20460;-75
2021/11/23 04:27:07;;;;;;;3.03;0.60;;;;;;;2.70;100.00;101774.53;5011819;28;20107;-75
2021/11/23 04:29:32;;;;;;;3.35;0.70;;;;;;;2.80;100.00;101794.06;5011904;28;20052;-75
2021/11/23 04:31:58;;;;;;;4.20;0.70;;;;;;;2.75;100.00;101797.13;5013873;28;20034;-76
2021/11/23 04:34:24;;;;;;;6.53;0.80;;;;;;;2.59;100.00;101764.78;5017590;28;20037;-76
2021/11/23 04:36:49;;;;;;;6.43;0.80;;;;;;;2.68;100.00;101782.63;5014668;28;20379;-75
2021/11/23 04:39:15;;;;;;;4.60;0.70;;;;;;;2.64;100.00;101797.13;5012230;28;20030;-75
2021/11/23 04:41:41;;;;;;;2.78;0.60;;;;;;;2.54;100.00;101782.88;5011814;28;20037;-75
2021/11/23 04:44:07;;;;;;;4.28;0.77;;;;;;;2.58;100.00;101785.19;5013998;28;20476;-75
2021/11/23 04:46:33;;;;;;;5.05;0.70;;;;;;;2.35;100.00;101762.25;5012240;28;20045;-75
2021/11/23 04:48:59;;;;;;;1.52;0.60;;;;;;;2.33;100.00;101782.78;5020012;28;20041;-75
2021/11/23 04:51:25;;;;;;;5.75;0.70;;;;;;;2.21;100.00;101781.94;5021406;28;20034;-75
2021/11/23 04:53:51;;;;;;;6.60;0.80;;;;;;;2.07;100.00;101779.53;5018449;28;20092;-75
2021/11/23 04:56:16;;;;;;;8.20;0.70;;;;;;;2.30;100.00;101805.13;4997212;28;20034;-75
2021/11/23 04:58:41;;;;;;;4.35;0.73;;;;;;;2.27;100.00;101797.38;5013628;28;20065;-75
2021/11/23 05:01:07;;;;;;;2.45;0.60;;;;;;;2.20;100.00;101780.25;5011488;28;20030;-76
2021/11/23 05:03:34;;;;;;;3.15;0.52;;;;;;;2.19;100.00;101783.88;5009037;28;20041;-75
2021/11/23 05:05:59;;;;;;;5.68;0.80;;;;;;;2.09;100.00;101778.44;5012656;28;20029;-74
2021/11/23 05:08:26;;;;;;;3.08;0.68;;;;;;;2.14;100.00;101775.41;5011158;28;20188;-75
2021/11/23 05:10:52;;;;;;;2.05;0.60;;;;;;;2.20;100.00;101785.56;5012249;28;20360;-76
2021/11/23 05:13:17;;;;;;;4.05;0.63;;;;;;;2.20;100.00;101769.63;4978477;28;20040;-76
2021/11/23 05:15:43;;;;;;;5.53;0.90;;;;;;;2.23;100.00;101785.31;4995099;28;20045;-75
2021/11/23 05:18:08;;;;;;;3.28;0.70;;;;;;;2.18;100.00;101790.13;5007084;28;20060;-75
2021/11/23 05:20:34;;;;;;;3.85;0.70;;;;;;;2.17;100.00;101785.81;5007830;28;20030;-75
2021/11/23 05:22:59;;;;;;;3.08;0.80;;;;;;;2.00;100.00;101759.72;5011874;28;20049;-76
2021/11/23 05:25:25;;;;;;;2.58;0.70;;;;;;;1.86;100.00;101766.97;5012418;28;20112;-75
2021/11/23 05:27:50;;;;;;;2.88;0.77;;;;;;;1.81;100.00;101769.09;5016327;28;20091;-75
2021/11/23 05:30:16;;;;;;;6.22;0.70;;;;;;;1.76;100.00;101776.59;5017797;28;20034;-76
2021/11/23 05:32:42;;;;;;;6.00;0.68;;;;;;;1.66;100.00;101757.03;5013159;28;20661;-75
2021/11/23 05:35:09;;;;;;;2.63;0.68;;;;;;;1.71;100.00;101765.47;5012222;28;20049;-75
2021/11/23 05:37:35;;;;;;;2.03;0.63;;;;;;;1.69;100.00;101764.78;5014311;28;20109;-76
2021/11/23 05:40:00;;;;;;;4.45;0.80;;;;;;;1.61;100.00;101767.16;5018575;28;20033;-76
2021/11/23 05:42:27;;;;;;;3.30;0.70;;;;;;;1.53;100.00;101766.91;5003880;28;20037;-75
2021/11/23 05:44:52;;;;;;;7.00;0.80;;;;;;;1.68;100.00;101776.31;5010495;28;20353;-75
2021/11/23 05:47:17;;;;;;;5.47;1.17;;;;;;;1.77;100.00;101777.44;5008653;28;20116;-75
2021/11/23 05:49:43;;;;;;;4.40;0.77;;;;;;;1.81;100.00;101768.28;4989524;28;20145;-75
2021/11/23 05:52:09;;;;;;;3.47;0.70;;;;;;;1.68;100.00;101751.59;5009172;28;20351;-75
2021/11/23 05:54:35;;;;;;;4.30;0.70;;;;;;;1.65;100.00;101742.06;5018301;28;20029;-75
2021/11/23 05:57:01;;;;;;;4.00;0.82;;;;;;;1.62;100.00;101747.59;5016138;28;20446;-75
2021/11/23 05:59:27;;;;;;;3.00;1.00;;;;;;;1.70;100.00;101779.72;5010001;28;20064;-76
2021/11/23 06:01:53;;;;;;;5.30;1.30;;;;;;;1.65;100.00;101773.91;5008946;28;20029;-77
2021/11/23 06:04:19;;;;;;;3.13;0.95;;;;;;;1.63;100.00;101776.69;5009228;28;20092;-75
2021/11/23 06:06:44;;;;;;;3.58;0.80;;;;;;;1.64;100.00;101774.88;5008264;28;20030;-76
2021/11/23 06:09:10;;;;;;;4.53;1.27;;;;;;;1.62;100.00;101774.13;4998056;28;20483;-75
2021/11/23 06:11:35;;;;;;;5.57;1.00;;;;;;;1.45;100.00;101734.78;5014919;28;20117;-75
2021/11/23 06:14:02;;;;;;;3.38;1.00;;;;;;;1.61;100.00;101773.28;5016865;28;20034;-76
2021/11/23 06:16:29;;;;;;;6.32;0.77;;;;;;;1.52;100.00;101762.53;5011502;28;20087;-75
2021/11/23 06:18:55;;;;;;;2.35;0.90;;;;;;;1.60;100.00;101776.91;5011255;28;20104;-74
2021/11/23 06:21:21;;;;;;;3.92;0.90;;;;;;;1.52;100.00;101771.34;5015866;28;20364;-76
2021/11/23 06:23:48;;;;;;;5.20;1.00;;;;;;;1.54;100.00;101784.50;5011346;28;20022;-76
2021/11/23 06:26:13;;;;;;;3.80;1.10;;;;;;;1.51;100.00;101782.06;5009197;28;20034;-75
2021/11/23 06:28:39;;;;;;;4.15;1.10;;;;;;;1.42;100.00;101767.69;5009811;28;20026;-75
2021/11/23 06:31:04;;;;;;;3.15;1.00;;;;;;;1.44;100.00;101772.91;5011485;28;20116;-75
2021/11/23 06:33:30;;;;;;;5.82;1.13;;;;;;;1.53;100.00;101786.31;5007751;28;20037;-75
2021/11/23 06:35:55;;;;;;;3.33;0.77;;;;;;;1.52;100.00;101779.28;5007707;28;20072;-74
2021/11/23 06:38:22;;;;;;;5.40;1.13;;;;;;;1.20;100.00;101773.78;5006918;28;20092;-75
2021/11/23 06:40:48;;;;;;;3.72;1.10;;;;;;;0.89;100.00;101738.97;5010558;28;20088;-75
2021/11/23 06:43:13;;;;;;;6.38;1.20;;;;;;;1.16;100.00;101785.59;5009939;28;20038;-75
2021/11/23 06:45:40;;;;;;;3.60;1.08;;;;;;;1.18;100.00;101791.59;5009299;28;20033;-76
2021/11/23 06:48:08;;;;;;;4.45;1.30;;;;;;;1.22;100.00;101795.69;5013807;28;20451;-75
2021/11/23 06:50:34;;;;;;;8.15;1.20;;;;;;;1.20;100.00;101800.28;5015775;28;20359;-75
2021/11/23 06:53:03;;;;;;;3.75;1.00;;;;;;;1.18;100.00;101788.94;5012571;28;20096;-75
2021/11/23 06:55:30;;;;;;;5.85;1.20;;;;;;;1.15;100.00;101797.97;4998265;28;20729;-75
2021/11/23 06:57:55;;;;;;;4.90;1.10;;;;;;;0.92;100.00;101764.38;5010408;28;20040;-75
2021/11/23 07:00:21;;;;;;;2.53;0.95;;;;;;;1.12;100.00;101803.50;5000417;28;20029;-75
2021/11/23 07:02:47;;;;;;;6.53;1.40;;;;;;;1.08;100.00;101809.13;5016924;28;20510;-75
2021/11/23 07:05:12;;;;;;;4.78;1.40;;;;;;;1.13;100.00;101810.50;5018063;28;20497;-75
2021/11/23 07:07:38;;;;;;;4.15;1.20;;;;;;;1.11;100.00;101811.56;5016708;28;20053;-74
2021/11/23 07:10:07;;;;;;;5.70;1.30;;;;;;;1.12;100.00;101810.59;5014751;28;20513;-74
2021/11/23 07:12:33;;;;;;;4.72;1.30;;;;;;;1.04;100.00;101803.22;5013449;28;20034;-74
2021/11/23 07:14:59;;;;;;;7.72;1.65;;;;;;;1.07;100.00;101815.41;5016839;28;20123;-74
2021/11/23 07:17:24;;;;;;;5.15;1.60;;;;;;;1.02;100.00;101813.09;5014244;28;20026;-74
2021/11/23 07:19:51;;;;;;;4.55;1.35;;;;;;;0.99;100.00;101826.56;4998940;28;20053;-74
2021/11/23 07:22:18;;;;;;;7.35;1.30;;;;;;;1.02;100.00;101830.78;5013862;28;20333;-74
2021/11/23 07:24:44;;;;;;;5.10;1.35;;;;;;;1.08;100.00;101833.00;4996295;28;20038;-74
2021/11/23 07:27:09;;;;;;;5.97;1.50;;;;;;;0.76;100.00;101769.94;5010644;28;20044;-74
2021/11/23 07:29:34;;;;;;;3.80;1.38;;;;;;;1.14;100.00;101832.56;5009805;28;20049;-75
2021/11/23 07:32:01;;;;;;;8.38;1.73;;;;;;;1.23;100.00;101831.03;5009716;28;20026;-74
2021/11/23 07:34:26;;;;;;;10.48;1.90;;;;;;;1.22;100.00;101816.06;5014202;28;20037;-74
2021/11/23 07:36:53;;;;;;;6.22;1.90;;;;;;;1.37;100.00;101823.75;5010834;28;20033;-74
2021/11/23 07:39:18;;;;;;;8.80;2.22;;;;;;;1.53;100.00;101796.06;5008718;28;20029;-74
2021/11/23 07:41:43;;;;;;;9.85;2.00;;;;;;;1.90;100.00;101830.44;5009415;28;20363;-74
2021/11/23 07:44:10;;;;;;;10.15;2.30;;;;;;;1.96;100.00;101816.69;4989822;28;20049;-74
2021/11/23 07:46:36;;;;;;;7.10;2.08;;;;;;;2.13;100.00;101832.16;5009021;28;20022;-74
2021/11/23 07:49:03;;;;;;;16.80;2.90;;;;;;;2.22;100.00;101823.47;5008545;28;20049;-74
2021/11/23 07:51:29;;;;;;;8.45;2.20;;;;;;;2.41;100.00;101835.28;5008073;28;20180;-74
2021/11/23 07:53:55;;;;;;;6.38;2.30;;;;;;;2.49;100.00;101839.03;5010851;28;20145;-75
2021/11/23 07:56:20;;;;;;;10.98;2.30;;;;;;;2.50;100.00;101834.56;5007159;28;20445;-74
2021/11/23 07:58:46;;;;;;;8.77;2.60;;;;;;;2.66;100.00;101858.13;4995063;28;20037;-75
2021/11/23 08:01:12;;;;;;;9.10;2.38;;;;;;;2.71;100.00;101851.47;5009024;28;20037;-75
2021/11/23 08:03:38;;;;;;;6.75;2.20;;;;;;;2.74;100.00;101831.78;5024141;28;20053;-74
2021/11/23 08:06:05;;;;;;;4.05;1.70;;;;;;;2.69;100.00;101802.91;5006309;28;20055;-74
2021/11/23 08:08:30;;;;;;;7.35;2.08;;;;;;;2.72;100.00;101797.34;5010993;28;20475;-75
2021/11/23 08:10:58;;;;;;;8.80;1.65;;;;;;;3.03;100.00;101842.72;5013699;28;20029;-74
2021/11/23 08:13:24;;;;;;;8.40;1.88;;;;;;;3.13;100.00;101850.78;5012140;28;20033;-74
2021/11/23 08:15:50;;;;;;;6.28;1.70;;;;;;;2.88;100.00;101782.81;5008488;28;20026;-74
2021/11/23 08:18:15;;;;;;;4.85;1.60;;;;;;;3.22;100.00;101826.94;4976137;28;20030;-74
2021/11/23 08:20:40;;;;;;;4.95;1.60;;;;;;;3.27;100.00;101829.22;4989827;28;20041;-75
2021/11/23 08:23:06;;;;;;;5.55;1.80;;;;;;;3.27;100.00;101830.06;5008284;28;20029;-75
2021/11/23 08:25:32;;;;;;;5.20;1.80;;;;;;;3.32;100.00;101829.69;5014645;28;20363;-74
2021/11/23 08:27:58;;;;;;;4.57;1.85;;;;;;;3.32;100.00;101837.69;4977720;28;20037;-74
2021/11/23 08:30:24;;;;;;;7.10;2.08;;;;;;;3.36;100.00;101844.44;5013499;28;20034;-75
2021/11/23 08:32:50;;;;;;;11.43;2.75;;;;;;;3.41;100.00;101841.38;5012892;28;20068;-75
2021/11/23 08:35:17;;;;;;;7.35;2.40;;;;;;;3.37;100.00;101835.47;5009798;28;20076;-74
2021/11/23 08:37:44;;;;;;;6.32;2.20;;;;;;;3.47;100.00;101843.53;5009372;28;20383;-75
2021/11/23 08:40:09;;;;;;;8.95;2.85;;;;;;;3.44;100.00;101825.16;5009492;28;20065;-74
2021/11/23 08:42:36;;;;;;;7.75;2.72;;;;;;;3.55;100.00;101837.59;5006139;28;20041;-74
2021/11/23 08:45:03;;;;;;;9.63;1.83;;;;;;;3.59;100.00;101839.88;5008210;28;20084;-74
2021/11/23 08:47:29;;;;;;;6.20;2.53;;;;;;;3.57;100.00;101827.66;5006939;28;20395;-73
2021/11/23 08:49:56;;;;;;;4.80;2.30;;;;;;;3.67;100.00;101834.72;5005688;28;20022;-74
2021/11/23 08:52:22;;;;;;;8.57;2.15;;;;;;;3.69;100.00;101824.81;5009108;28;20057;-74
2021/11/23 08:54:48;;;;;;;4.47;2.15;;;;;;;3.76;100.00;101833.13;5006281;28;20452;-74
2021/11/23 08:57:13;;;;;;;7.60;1.90;;;;;;;3.76;100.00;101830.47;5011603;28;20109;-74
2021/11/23 08:59:42;;;;;;;8.15;2.13;;;;;;;3.87;100.00;101832.22;5012593;28;20113;-74
2021/11/23 09:02:10;;;;;;;5.32;2.08;;;;;;;3.94;100.00;101849.34;5009817;28;20112;-74
2021/11/23 09:04:36;;;;;;;7.97;2.40;;;;;;;3.97;100.00;101854.41;5011655;28;20034;-75
2021/11/23 09:07:06;;;;;;;6.93;2.00;;;;;;;4.02;100.00;101865.53;5009418;28;20042;-74
2021/11/23 09:09:32;;;;;;;5.97;2.25;;;;;;;4.11;100.00;101875.41;5009605;28;20087;-74
2021/11/23 09:12:01;;;;;;;12.32;2.85;;;;;;;4.17;100.00;101866.91;5009343;28;20341;-74
2021/11/23 09:14:28;;;;;;;9.27;3.25;;;;;;;4.25;100.00;101863.56;5010691;28;20026;-75
2021/11/23 09:16:56;;;;;;;7.57;3.33;;;;;;;4.33;100.00;101855.75;5012683;28;20113;-75
2021/11/23 09:19:22;;;;;;;7.30;3.10;;;;;;;4.39;100.00;101839.22;5009106;28;20037;-75
2021/11/23 09:21:47;;;;;;;9.65;3.45;;;;;;;4.49;100.00;101841.94;4993512;28;20026;-75
2021/11/23 09:24:14;;;;;;;10.43;3.55;;;;;;;4.56;100.00;101840.41;4996405;28;20041;-75
2021/11/23 09:26:40;;;;;;;10.02;3.42;;;;;;;4.61;100.00;101848.03;5012256;28;20112;-75
2021/11/23 09:29:06;;;;;;;10.73;3.05;;;;;;;4.61;100.00;101840.88;5010354;28;20117;-75
2021/11/23 09:31:32;;;;;;;7.00;2.60;;;;;;;4.30;100.00;101792.06;5009619;28;20029;-75
2021/11/23 09:33:58;;;;;;;15.25;2.83;;;;;;;4.78;100.00;101854.53;4993588;28;20022;-75
2021/11/23 09:36:23;;;;;;;9.23;2.10;;;;;;;4.75;100.00;101837.00;4998276;28;20029;-74
2021/11/23 09:38:49;;;;;;;6.88;1.70;;;;;;;4.75;100.00;101834.31;5010679;28;20041;-74
2021/11/23 09:41:15;;;;;;;9.77;1.90;;;;;;;4.81;100.00;101840.94;5011665;28;20041;-75
2021/11/23 09:43:41;;;;;;;6.70;1.77;;;;;;;4.93;100.00;101856.69;5012719;28;20022;-75
2021/11/23 09:46:08;;;;;;;9.57;1.83;;;;;;;4.96;100.00;101847.56;5019767;28;20411;-76
2021/11/23 09:48:43;;;;;;;6.38;1.20;;;;;;;5.00;100.00;101849.00;5008064;28;20424;-75
2021/11/23 09:51:25;;;;;;;10.40;1.30;;;;;;;5.10;100.00;101848.97;5009446;28;20022;-75
2021/11/23 09:53:51;;;;;;;13.07;2.53;;;;;;;5.14;100.00;101850.41;5008866;28;20084;-75
2021/11/23 09:56:17;;;;;;;5.63;1.40;;;;;;;5.18;100.00;101852.66;5012015;28;20075;-75
2021/11/23 09:58:42;;;;;;;5.03;1.30;;;;;;;5.23;100.00;101854.06;5019083;28;20785;-75
2021/11/23 10:01:10;;;;;;;7.13;1.50;;;;;;;5.16;100.00;101833.28;5012770;28;20053;-75
2021/11/23 10:03:36;;;;;;;4.20;1.30;;;;;;;5.33;100.00;101849.59;5015839;28;20040;-75
2021/11/23 10:06:14;;;;;;;7.55;1.77;;;;;;;5.33;100.00;101844.25;5017657;28;20050;-75
2021/11/23 10:08:43;;;;;;;4.38;1.88;;;;;;;5.39;100.00;101843.69;5016445;28;20038;-75
2021/11/23 10:11:10;;;;;;;5.05;1.58;;;;;;;5.41;100.00;101833.72;5012209;28;20087;-75
2021/11/23 10:13:44;;;;;;;6.55;1.70;;;;;;;5.54;100.00;101844.13;5013175;28;20490;-74
2021/11/23 10:16:10;;;;;;;5.72;2.20;;;;;;;5.64;100.00;101837.78;5015085;28;20034;-75
2021/11/23 10:18:36;;;;;;;7.93;1.92;;;;;;;5.70;100.00;101835.56;5012690;28;20379;-74
2021/11/23 10:21:06;;;;;;;5.60;1.92;;;;;;;5.55;100.00;101803.94;5013293;28;20054;-75
2021/11/23 10:23:43;;;;;;;9.05;1.88;;;;;;;5.86;100.00;101846.47;5021574;28;20476;-74
2021/11/23 10:26:15;;;;;;;6.88;1.50;;;;;;;5.96;100.00;101844.69;5022115;28;20045;-75
2021/11/23 10:28:46;;;;;;;4.75;1.70;;;;;;;6.06;100.00;101841.97;5019561;28;20021;-74
2021/11/23 10:31:13;;;;;;;8.70;2.13;;;;;;;6.14;100.00;101843.94;5016436;28;20032;-74
2021/11/23 10:33:39;;;;;;;4.93;1.50;;;;;;;6.18;100.00;101829.31;4999739;28;20123;-74
2021/11/23 10:36:10;;;;;;;10.55;2.05;;;;;;;6.28;100.00;101819.41;5012047;28;20069;-74
2021/11/23 10:38:38;;;;;;;6.13;1.50;;;;;;;6.46;100.00;101827.53;5014200;28;20053;-75
2021/11/23 10:41:17;;;;;;;4.55;1.38;;;;;;;6.53;100.00;101820.59;5012612;28;20052;-74
2021/11/23 10:43:44;;;;;;;2.90;1.20;;;;;;;6.64;100.00;101809.69;5015714;28;20057;-75
2021/11/23 10:46:32;;;;;;;5.50;1.10;;;;;;;6.85;100.00;101817.44;5021715;28;20053;-74
2021/11/23 10:49:00;;;;;;;9.13;1.20;;;;;;;6.96;100.00;101825.28;5017586;28;20034;-75
2021/11/23 10:51:26;;;;;;;3.88;1.05;;;;;;;7.09;100.00;101827.59;5002956;28;20467;-75
2021/11/23 10:54:11;;;;;;;9.30;1.45;;;;;;;7.23;100.00;101821.72;5013230;28;20467;-74
2021/11/23 10:57:00;;;;;;;5.03;1.05;;;;;;;7.02;100.00;101816.66;5013216;28;20120;-74
2021/11/23 10:59:26;;;;;;;4.20;1.13;;;;;;;6.97;100.00;101808.22;5012703;28;20033;-74
2021/11/23 11:01:53;;;;;;;4.50;1.08;;;;;;;6.91;100.00;101814.19;5013611;28;20363;-75
2021/11/23 11:04:19;;;;;;;5.80;0.82;;;;;;;7.18;100.00;101820.47;4999800;28;20124;-75
2021/11/23 11:06:47;;;;;;;2.72;0.90;;;;;;;7.01;100.00;101790.88;5018645;28;20033;-75
2021/11/23 11:09:15;;;;;;;3.70;0.80;;;;;;;7.20;100.00;101787.22;5013758;28;20310;-75
2021/11/23 11:11:41;;;;;;;3.10;0.70;;;;;;;7.43;100.00;101763.50;5014845;28;20022;-75
2021/11/23 11:14:07;;;;;;;3.50;1.00;;;;;;;7.63;100.00;101784.75;5014575;28;20056;-74
2021/11/23 11:16:37;;;;;;;5.53;1.00;;;;;;;7.77;100.00;101801.09;5013513;28;20473;-75
2021/11/23 11:19:14;;;;;;;9.90;3.22;;;;;;;7.86;100.00;101803.84;5013462;28;20037;-74
2021/11/23 11:21:48;;;;;;;12.90;5.05;;;;;;;7.94;100.00;101799.34;5013266;28;20468;-75
2021/11/23 11:24:23;;;;;;;7.65;2.20;;;;;;;8.04;100.00;101799.25;5014005;28;20047;-75